Starbuck, Washington
Current Conditions -  °F | °C
As of 3:53 PM on Monday 20 Oct 2014 (Local Time) from KALW Reporting Station
Few Clouds Few Clouds  
Wind Chill: 69°   Ceiling: Unl
Heat Index: 69°   Visibility: 10mi
Dew Point: 50°   Wind: 10mph
Humidity: 51%   Direction: 270°W
Pressure: 29.76"   Gusts: NA
Location:  46.52°N, 118.13°W
Report Text: KALW 202253Z 27009KT 10SM FEW110 21/10 A2976 RMK AO2 SLP073 T02060100
Loading
Personal Weather Stations






























Interactive Weather Map
Tropical Storm Tracking
New forecast layout! Learn more

10-Day Weather Forecast

Advertisements
Track Severe Weather on mobile